Time;durP1;ratioP1;P1;durP2;ratioP2;P2;SDS_P1;SDS_P2;PMS_P1;PMS_P2;Temp;Humidity;BMP_temperature;BMP_pressure;BME280_temperature;BME280_humidity;BME280_pressure;Samples;Min_cycle;Max_cycle;Signal;HPM_P1;HPM_P2
2022/12/28 00:01:16;;;;;;;24.50;22.40;;;;;;;;;;10131629;28;20485;-66
2022/12/28 00:06:12;;;;;;;22.60;20.88;;;;;;;;;;10139536;28;20054;-66
2022/12/28 00:11:13;;;;;;;22.40;20.45;;;;;;;;;;10116760;28;20130;-66
2022/12/28 00:16:27;;;;;;;21.02;19.42;;;;;;;;;;10138135;28;20070;-66
2022/12/28 00:21:24;;;;;;;20.08;18.48;;;;;;;;;;10113943;28;20047;-66
2022/12/28 00:26:20;;;;;;;20.42;18.83;;;;;;;;;;10132024;28;20050;-66
2022/12/28 00:31:16;;;;;;;20.95;19.00;;;;;;;;;;10113826;28;20081;-66
2022/12/28 00:36:13;;;;;;;22.38;17.70;;;;;;;;;;10129054;28;20513;-66
2022/12/28 00:41:10;;;;;;;20.30;17.70;;;;;;;;;;10120515;28;20046;-66
2022/12/28 00:46:06;;;;;;;17.85;16.23;;;;;;;;;;10134573;28;20053;-66
2022/12/28 00:51:03;;;;;;;15.20;14.05;;;;;;;;;;10120949;28;20050;-66
2022/12/28 00:56:04;;;;;;;14.98;13.65;;;;;;;;;;10143155;28;20077;-66
2022/12/28 01:01:00;;;;;;;16.80;14.52;;;;;;;;;;10153261;28;20039;-66
2022/12/28 01:05:57;;;;;;;16.23;14.20;;;;;;;;;;10143659;28;20050;-66
2022/12/28 01:10:53;;;;;;;15.48;13.93;;;;;;;;;;10150633;28;20043;-66
2022/12/28 01:15:49;;;;;;;15.25;13.85;;;;;;;;;;10142078;28;20052;-66
2022/12/28 01:20:45;;;;;;;15.57;13.80;;;;;;;;;;10135459;28;20070;-65
2022/12/28 01:25:41;;;;;;;14.27;12.90;;;;;;;;;;10121783;28;20070;-66
2022/12/28 01:30:38;;;;;;;17.20;14.02;;;;;;;;;;10119802;28;20070;-66
2022/12/28 01:35:35;;;;;;;18.45;12.35;;;;;;;;;;10129461;28;20051;-65
2022/12/28 01:40:31;;;;;;;13.27;12.07;;;;;;;;;;10119075;28;20046;-66
2022/12/28 01:45:27;;;;;;;13.82;12.30;;;;;;;;;;10137045;28;20052;-67
2022/12/28 01:50:26;;;;;;;13.25;11.98;;;;;;;;;;10157397;28;20065;-66
2022/12/28 01:55:38;;;;;;;13.98;12.50;;;;;;;;;;10142786;28;20054;-65
2022/12/28 02:00:34;;;;;;;16.23;11.35;;;;;;;;;;10151826;28;20516;-65
2022/12/28 02:05:41;;;;;;;11.43;10.63;;;;;;;;;;10134267;28;20050;-66
2022/12/28 02:10:38;;;;;;;12.10;11.00;;;;;;;;;;10157042;28;20042;-66
2022/12/28 02:15:40;;;;;;;13.18;11.15;;;;;;;;;;10141802;28;20050;-66
2022/12/28 02:20:39;;;;;;;11.60;10.63;;;;;;;;;;10156276;28;20053;-66
2022/12/28 02:25:44;;;;;;;11.77;10.68;;;;;;;;;;10137616;28;20038;-66
2022/12/28 02:30:53;;;;;;;12.15;10.32;;;;;;;;;;10145301;28;20750;-66
2022/12/28 02:35:57;;;;;;;11.95;10.98;;;;;;;;;;10139122;28;20503;-66
2022/12/28 02:41:05;;;;;;;11.48;10.50;;;;;;;;;;10136770;28;20054;-66
2022/12/28 02:51:44;;;;;;;12.07;11.15;;;;;;;;;;10087783;28;20078;-66
2022/12/28 02:56:54;;;;;;;13.85;12.68;;;;;;;;;;10115183;28;20050;-66
2022/12/28 03:01:56;;;;;;;15.70;14.48;;;;;;;;;;10114768;28;20047;-66
2022/12/28 03:12:41;;;;;;;17.88;16.38;;;;;;;;;;10115838;28;20051;-66
2022/12/28 03:33:28;;;;;;;23.63;21.75;;;;;;;;;;10142963;28;20057;-66
2022/12/28 03:38:43;;;;;;;24.83;23.13;;;;;;;;;;10153841;28;20043;-66
2022/12/28 03:43:43;;;;;;;25.77;23.73;;;;;;;;;;10108565;28;20567;-66
2022/12/28 03:48:40;;;;;;;24.73;23.13;;;;;;;;;;10113297;28;20058;-65
2022/12/28 03:53:41;;;;;;;28.30;26.10;;;;;;;;;;10118298;28;20487;-66
2022/12/28 03:58:37;;;;;;;28.23;26.33;;;;;;;;;;10151694;28;20043;-66
2022/12/28 04:03:34;;;;;;;28.13;26.05;;;;;;;;;;10117956;28;20061;-66
2022/12/28 04:08:31;;;;;;;30.00;27.77;;;;;;;;;;10145736;28;20129;-66
2022/12/28 04:13:28;;;;;;;32.13;29.92;;;;;;;;;;10116681;28;20504;-66
2022/12/28 04:18:25;;;;;;;34.50;32.05;;;;;;;;;;10128482;28;20125;-66
2022/12/28 04:23:21;;;;;;;35.15;32.22;;;;;;;;;;10110109;28;20078;-66
2022/12/28 04:28:17;;;;;;;36.67;34.13;;;;;;;;;;10113331;28;20133;-65
2022/12/28 04:33:13;;;;;;;37.55;34.83;;;;;;;;;;10113814;28;20137;-66
2022/12/28 04:38:10;;;;;;;40.95;38.47;;;;;;;;;;10113645;28;20047;-70
2022/12/28 04:43:06;;;;;;;43.08;40.38;;;;;;;;;;10113076;28;20046;-65
2022/12/28 04:48:02;;;;;;;44.53;41.78;;;;;;;;;;10152541;28;20085;-66
2022/12/28 04:52:59;;;;;;;45.08;42.00;;;;;;;;;;10134936;28;20134;-65
2022/12/28 04:57:55;;;;;;;46.67;43.78;;;;;;;;;;10151448;28;20047;-66
2022/12/28 05:02:51;;;;;;;46.33;43.42;;;;;;;;;;10126835;28;20086;-65
2022/12/28 05:07:47;;;;;;;45.53;42.72;;;;;;;;;;10150472;28;20058;-66
2022/12/28 05:12:44;;;;;;;50.45;46.90;;;;;;;;;;10127585;28;20049;-65
2022/12/28 05:17:40;;;;;;;49.10;46.00;;;;;;;;;;10149351;28;20042;-66
2022/12/28 05:22:36;;;;;;;51.55;48.03;;;;;;;;;;10112348;28;20561;-66
2022/12/28 05:27:36;;;;;;;50.92;47.70;;;;;;;;;;10154380;28;20042;-65
2022/12/28 05:32:32;;;;;;;52.45;48.80;;;;;;;;;;10119389;28;20130;-65
2022/12/28 05:37:28;;;;;;;53.03;49.63;;;;;;;;;;10117510;28;20129;-65
2022/12/28 05:42:25;;;;;;;53.00;49.33;;;;;;;;;;10118861;28;20129;-66
2022/12/28 05:47:21;;;;;;;54.45;50.75;;;;;;;;;;10137517;28;20509;-65
2022/12/28 05:52:17;;;;;;;53.38;49.67;;;;;;;;;;10117709;28;20553;-65
2022/12/28 05:57:13;;;;;;;51.58;48.17;;;;;;;;;;10127554;28;20077;-66
2022/12/28 06:02:10;;;;;;;53.72;50.03;;;;;;;;;;10117389;28;20129;-65
2022/12/28 06:07:08;;;;;;;52.95;49.25;;;;;;;;;;10149812;28;20080;-65
2022/12/28 06:12:05;;;;;;;51.95;48.35;;;;;;;;;;10157332;28;20074;-65
2022/12/28 06:17:03;;;;;;;55.28;51.15;;;;;;;;;;10132898;28;20043;-65
2022/12/28 06:21:59;;;;;;;52.63;48.65;;;;;;;;;;10117072;28;20082;-65
2022/12/28 06:26:56;;;;;;;54.05;50.28;;;;;;;;;;10148122;28;20046;-64
2022/12/28 06:31:53;;;;;;;53.15;49.45;;;;;;;;;;10152741;28;20164;-64
2022/12/28 06:36:51;;;;;;;53.35;49.55;;;;;;;;;;10146947;28;20074;-64
2022/12/28 06:41:47;;;;;;;54.53;50.63;;;;;;;;;;10149310;28;20072;-64
2022/12/28 06:46:43;;;;;;;51.97;48.45;;;;;;;;;;10146067;28;20134;-65
2022/12/28 06:51:40;;;;;;;53.22;49.58;;;;;;;;;;10144148;28;20042;-65
2022/12/28 06:56:37;;;;;;;54.35;50.35;;;;;;;;;;10144766;28;20424;-64
2022/12/28 07:01:37;;;;;;;55.25;51.45;;;;;;;;;;10141150;28;20113;-64
2022/12/28 07:06:36;;;;;;;54.47;50.75;;;;;;;;;;10144197;28;20060;-64
2022/12/28 07:11:33;;;;;;;54.47;50.53;;;;;;;;;;10137932;28;20494;-64
2022/12/28 07:16:29;;;;;;;53.47;49.78;;;;;;;;;;10142784;28;20080;-64
2022/12/28 07:21:25;;;;;;;54.95;51.35;;;;;;;;;;10133067;28;20104;-64
2022/12/28 07:26:23;;;;;;;54.38;50.65;;;;;;;;;;10141492;28;20046;-64
2022/12/28 07:31:21;;;;;;;52.88;49.28;;;;;;;;;;10128042;28;20074;-64
2022/12/28 07:36:18;;;;;;;54.17;50.47;;;;;;;;;;10140420;28;20215;-64
2022/12/28 07:41:16;;;;;;;53.83;50.03;;;;;;;;;;10127152;28;20061;-64
2022/12/28 07:46:17;;;;;;;55.30;51.53;;;;;;;;;;10139472;28;20074;-64
2022/12/28 07:51:16;;;;;;;56.00;52.20;;;;;;;;;;10117642;28;20464;-64
2022/12/28 07:56:13;;;;;;;53.67;50.08;;;;;;;;;;10131324;28;20549;-64
2022/12/28 08:01:11;;;;;;;53.60;49.90;;;;;;;;;;10114745;28;20082;-64
2022/12/28 08:06:10;;;;;;;54.85;51.05;;;;;;;;;;10113220;28;20070;-64
2022/12/28 08:11:07;;;;;;;55.25;51.35;;;;;;;;;;10113978;28;20448;-64
2022/12/28 08:16:04;;;;;;;51.92;48.13;;;;;;;;;;10136385;28;20068;-64
2022/12/28 08:21:05;;;;;;;51.28;47.67;;;;;;;;;;10147708;28;20054;-64
2022/12/28 08:26:06;;;;;;;51.95;48.35;;;;;;;;;;10137300;28;20136;-63
2022/12/28 08:31:06;;;;;;;50.17;46.58;;;;;;;;;;10144815;28;20049;-64
2022/12/28 08:36:04;;;;;;;51.58;47.97;;;;;;;;;;10137905;28;20145;-64
2022/12/28 08:41:01;;;;;;;52.50;48.70;;;;;;;;;;10134469;28;20051;-64
2022/12/28 08:45:58;;;;;;;47.42;44.03;;;;;;;;;;10137264;28;20043;-64
2022/12/28 08:50:59;;;;;;;49.33;45.72;;;;;;;;;;10128632;28;20516;-64
2022/12/28 08:55:55;;;;;;;51.17;47.38;;;;;;;;;;10136181;28;20042;-64
2022/12/28 09:01:21;;;;;;;51.90;48.10;;;;;;;;;;10128120;28;20070;-64
2022/12/28 09:06:19;;;;;;;53.53;49.53;;;;;;;;;;10136974;28;20093;-64
2022/12/28 09:11:15;;;;;;;53.20;49.30;;;;;;;;;;10120885;28;20540;-64
2022/12/28 09:16:13;;;;;;;50.63;46.67;;;;;;;;;;10128838;28;20568;-64
2022/12/28 09:21:17;;;;;;;51.28;47.30;;;;;;;;;;10119791;28;20047;-64
2022/12/28 09:26:17;;;;;;;54.65;50.30;;;;;;;;;;10125140;28;20584;-64
2022/12/28 09:31:14;;;;;;;53.00;48.78;;;;;;;;;;10119520;28;20497;-64
2022/12/28 09:36:10;;;;;;;51.63;47.63;;;;;;;;;;10143221;28;20488;-64
2022/12/28 09:41:26;;;;;;;54.30;50.25;;;;;;;;;;10158700;28;20085;-64
2022/12/28 09:46:22;;;;;;;52.78;48.83;;;;;;;;;;10146598;28;20054;-64
2022/12/28 09:51:23;;;;;;;53.80;49.65;;;;;;;;;;10155838;28;20371;-64
2022/12/28 09:56:27;;;;;;;56.28;51.88;;;;;;;;;;10120162;28;20730;-64
2022/12/28 10:01:23;;;;;;;56.85;52.75;;;;;;;;;;10117879;28;20409;-64
2022/12/28 10:06:22;;;;;;;57.15;52.97;;;;;;;;;;10144385;28;20089;-64
2022/12/28 10:11:23;;;;;;;57.88;53.63;;;;;;;;;;10137423;28;20125;-63
2022/12/28 10:16:20;;;;;;;57.05;52.85;;;;;;;;;;10143833;28;20092;-64
2022/12/28 10:21:19;;;;;;;56.08;52.00;;;;;;;;;;10122311;28;20102;-64
2022/12/28 10:26:16;;;;;;;54.60;50.63;;;;;;;;;;10137880;28;20134;-64
2022/12/28 10:31:13;;;;;;;55.55;51.45;;;;;;;;;;10118105;28;20061;-64
2022/12/28 10:36:14;;;;;;;53.35;49.45;;;;;;;;;;10126090;28;20101;-64
2022/12/28 10:41:14;;;;;;;55.83;51.53;;;;;;;;;;10117653;28;20061;-64
2022/12/28 10:46:15;;;;;;;56.55;52.40;;;;;;;;;;10119692;28;20052;-64
2022/12/28 10:51:12;;;;;;;55.58;51.58;;;;;;;;;;10117063;28;20053;-64
2022/12/28 10:56:11;;;;;;;59.83;55.63;;;;;;;;;;10115883;28;20046;-64
2022/12/28 11:01:11;;;;;;;54.97;50.80;;;;;;;;;;10115845;28;20055;-64
2022/12/28 11:06:09;;;;;;;60.03;55.83;;;;;;;;;;10125909;28;20070;-64
2022/12/28 11:11:06;;;;;;;58.72;54.42;;;;;;;;;;10149308;28;20066;-64
2022/12/28 11:16:06;;;;;;;63.17;58.78;;;;;;;;;;10139785;28;20050;-64
2022/12/28 11:21:03;;;;;;;58.58;54.38;;;;;;;;;;10144757;28;20066;-64
2022/12/28 11:26:00;;;;;;;59.55;54.95;;;;;;;;;;10139000;28;20600;-64
2022/12/28 11:30:56;;;;;;;59.65;55.38;;;;;;;;;;10130786;28;20126;-64
2022/12/28 11:35:53;;;;;;;53.85;49.95;;;;;;;;;;10137748;28;20046;-64
2022/12/28 11:40:54;;;;;;;61.30;57.07;;;;;;;;;;10120421;28;20088;-64
2022/12/28 11:45:52;;;;;;;62.45;58.22;;;;;;;;;;10137005;28;20541;-64
2022/12/28 11:50:49;;;;;;;57.67;53.67;;;;;;;;;;10115569;28;20057;-64
2022/12/28 11:55:48;;;;;;;56.88;52.85;;;;;;;;;;10118595;28;20053;-64
2022/12/28 12:00:48;;;;;;;57.38;53.28;;;;;;;;;;10114345;28;20126;-64
2022/12/28 12:05:48;;;;;;;54.53;50.63;;;;;;;;;;10113448;28;20082;-63
2022/12/28 12:10:45;;;;;;;57.88;53.85;;;;;;;;;;10113949;28;20478;-64
2022/12/28 12:15:43;;;;;;;57.45;53.45;;;;;;;;;;10134071;28;20710;-64
2022/12/28 12:20:48;;;;;;;57.67;53.58;;;;;;;;;;10153776;28;20046;-64
2022/12/28 12:25:47;;;;;;;58.67;54.47;;;;;;;;;;10117243;28;20476;-64
2022/12/28 12:30:44;;;;;;;54.35;50.45;;;;;;;;;;10150645;28;20046;-64
2022/12/28 12:36:00;;;;;;;56.50;52.30;;;;;;;;;;10140803;28;20412;-64
2022/12/28 12:41:16;;;;;;;57.17;52.97;;;;;;;;;;10153617;28;20479;-64
2022/12/28 12:46:22;;;;;;;55.92;51.83;;;;;;;;;;10146742;28;20042;-64
2022/12/28 12:51:18;;;;;;;56.45;52.35;;;;;;;;;;10147860;28;20061;-64
2022/12/28 12:56:17;;;;;;;56.67;52.55;;;;;;;;;;10146564;28;20129;-64
2022/12/28 13:01:33;;;;;;;56.05;51.85;;;;;;;;;;10128113;28;20122;-64
2022/12/28 13:06:32;;;;;;;58.33;54.03;;;;;;;;;;10135543;28;20765;-64
2022/12/28 13:11:29;;;;;;;59.92;55.65;;;;;;;;;;10120791;28;20493;-64
2022/12/28 13:16:27;;;;;;;60.20;55.72;;;;;;;;;;10128676;28;20061;-64
2022/12/28 13:21:25;;;;;;;54.55;50.60;;;;;;;;;;10119752;28;20063;-64
2022/12/28 13:26:24;;;;;;;54.25;50.25;;;;;;;;;;10120518;28;20077;-64
2022/12/28 13:31:22;;;;;;;56.80;52.60;;;;;;;;;;10120077;28;20078;-65
2022/12/28 13:36:18;;;;;;;56.65;52.25;;;;;;;;;;10144806;28;20085;-64
2022/12/28 13:41:23;;;;;;;54.22;50.08;;;;;;;;;;10148790;28;20141;-64
2022/12/28 13:46:20;;;;;;;56.80;52.47;;;;;;;;;;10144837;28;20056;-64
2022/12/28 13:51:17;;;;;;;55.45;51.20;;;;;;;;;;10135340;28;20050;-64
2022/12/28 13:56:15;;;;;;;56.40;51.90;;;;;;;;;;10143116;28;20046;-64
2022/12/28 14:01:13;;;;;;;55.95;51.72;;;;;;;;;;10139828;28;20046;-64
2022/12/28 14:06:12;;;;;;;57.35;53.05;;;;;;;;;;10142283;28;20050;-64
2022/12/28 14:11:09;;;;;;;55.25;50.95;;;;;;;;;;10157516;28;20049;-64
2022/12/28 14:16:06;;;;;;;56.20;51.78;;;;;;;;;;10150405;28;20073;-64
2022/12/28 14:21:03;;;;;;;55.50;50.88;;;;;;;;;;10154609;28;20528;-64
2022/12/28 14:26:01;;;;;;;53.25;49.10;;;;;;;;;;10141488;28;20046;-64
2022/12/28 14:30:57;;;;;;;55.00;50.60;;;;;;;;;;10152865;28;20130;-66
2022/12/28 14:35:56;;;;;;;55.15;50.85;;;;;;;;;;10140004;28;20043;-64
2022/12/28 14:40:54;;;;;;;56.92;52.72;;;;;;;;;;10138242;28;20661;-64
2022/12/28 14:45:50;;;;;;;55.20;51.05;;;;;;;;;;10138969;28;20053;-65
2022/12/28 14:51:15;;;;;;;54.17;50.15;;;;;;;;;;10134474;28;20485;-64
2022/12/28 14:56:15;;;;;;;54.78;50.58;;;;;;;;;;10139735;28;20109;-65
2022/12/28 15:01:13;;;;;;;52.78;48.88;;;;;;;;;;10116652;28;20138;-65
2022/12/28 15:06:09;;;;;;;51.67;47.75;;;;;;;;;;10131068;28;20047;-65
2022/12/28 15:11:07;;;;;;;53.58;49.58;;;;;;;;;;10115834;28;20141;-64
2022/12/28 15:16:09;;;;;;;52.88;48.97;;;;;;;;;;10140004;28;20600;-64
2022/12/28 15:21:06;;;;;;;50.17;46.47;;;;;;;;;;10151355;28;20104;-64
2022/12/28 15:26:09;;;;;;;48.97;45.28;;;;;;;;;;10139234;28;20050;-64
2022/12/28 15:31:06;;;;;;;49.25;45.30;;;;;;;;;;10143494;28;20054;-64
2022/12/28 15:36:06;;;;;;;48.63;45.00;;;;;;;;;;10138649;28;20054;-64
2022/12/28 15:46:25;;;;;;;47.80;44.20;;;;;;;;;;10141962;28;20132;-64
2022/12/28 15:51:21;;;;;;;46.55;43.08;;;;;;;;;;10115946;28;20069;-64
2022/12/28 15:56:24;;;;;;;46.70;43.22;;;;;;;;;;10132302;28;20124;-65
2022/12/28 16:01:20;;;;;;;47.25;43.67;;;;;;;;;;10114906;28;20053;-65
2022/12/28 16:06:17;;;;;;;47.67;44.17;;;;;;;;;;10124627;28;20051;-64
2022/12/28 16:11:17;;;;;;;46.20;42.70;;;;;;;;;;10113918;28;20053;-64
2022/12/28 16:16:13;;;;;;;47.10;43.60;;;;;;;;;;10120295;28;20130;-64
2022/12/28 16:21:10;;;;;;;46.78;43.28;;;;;;;;;;10114269;28;20043;-64
2022/12/28 16:26:07;;;;;;;48.17;44.45;;;;;;;;;;10115631;28;20455;-64
2022/12/28 16:31:04;;;;;;;48.20;44.50;;;;;;;;;;10114105;28;20643;-64
2022/12/28 16:36:00;;;;;;;50.97;47.10;;;;;;;;;;10136655;28;20093;-64
2022/12/28 16:40:56;;;;;;;50.63;46.83;;;;;;;;;;10140775;28;20595;-64
2022/12/28 16:45:52;;;;;;;52.63;48.72;;;;;;;;;;10136186;28;20060;-64
2022/12/28 16:50:55;;;;;;;53.47;49.50;;;;;;;;;;10130311;28;20693;-64
2022/12/28 16:55:52;;;;;;;51.30;47.60;;;;;;;;;;10135796;28;20133;-64
2022/12/28 17:00:48;;;;;;;55.60;51.58;;;;;;;;;;10112874;28;20047;-64
2022/12/28 17:05:47;;;;;;;55.03;50.92;;;;;;;;;;10127815;28;20047;-65
2022/12/28 17:10:44;;;;;;;54.88;50.78;;;;;;;;;;10113501;28;20556;-64
2022/12/28 17:15:41;;;;;;;56.35;52.20;;;;;;;;;;10132912;28;20070;-64
2022/12/28 17:20:37;;;;;;;54.20;50.20;;;;;;;;;;10154444;28;20104;-65
2022/12/28 17:25:34;;;;;;;57.95;53.45;;;;;;;;;;10141821;28;20139;-64
2022/12/28 17:30:30;;;;;;;56.75;52.50;;;;;;;;;;10152345;28;20423;-64
2022/12/28 17:35:27;;;;;;;57.08;52.97;;;;;;;;;;10139159;28;20082;-64
2022/12/28 17:40:23;;;;;;;55.78;51.67;;;;;;;;;;10139059;28;20046;-65
2022/12/28 17:45:19;;;;;;;55.22;51.22;;;;;;;;;;10137733;28;20411;-64
2022/12/28 17:50:16;;;;;;;55.97;51.72;;;;;;;;;;10131266;28;20078;-64
2022/12/28 17:55:13;;;;;;;57.15;53.15;;;;;;;;;;10132922;28;20085;-65
2022/12/28 18:00:09;;;;;;;59.88;55.50;;;;;;;;;;10118869;28;20042;-63
2022/12/28 18:05:06;;;;;;;56.58;52.35;;;;;;;;;;10122804;28;20138;-64
2022/12/28 18:10:02;;;;;;;60.63;56.00;;;;;;;;;;10118272;28;20133;-65
2022/12/28 18:14:58;;;;;;;60.63;56.22;;;;;;;;;;10133417;28;20053;-64
2022/12/28 18:19:55;;;;;;;61.88;57.47;;;;;;;;;;10157571;28;20066;-64
2022/12/28 18:24:52;;;;;;;62.90;58.25;;;;;;;;;;10146419;28;20053;-64
2022/12/28 18:29:48;;;;;;;61.60;57.03;;;;;;;;;;10157023;28;20077;-64
2022/12/28 18:34:44;;;;;;;59.92;55.75;;;;;;;;;;10139220;28;20042;-64
2022/12/28 18:39:41;;;;;;;64.35;59.80;;;;;;;;;;10153651;28;20050;-64
2022/12/28 18:44:37;;;;;;;63.10;58.80;;;;;;;;;;10130539;28;20563;-64
2022/12/28 18:49:33;;;;;;;61.75;57.55;;;;;;;;;;10147192;28;20057;-64
2022/12/28 18:54:29;;;;;;;61.90;57.70;;;;;;;;;;10128248;28;20089;-64
2022/12/28 18:59:26;;;;;;;58.42;54.42;;;;;;;;;;10145077;28;20051;-64
2022/12/28 19:04:22;;;;;;;57.25;53.63;;;;;;;;;;10126923;28;20053;-64
2022/12/28 19:09:19;;;;;;;52.50;49.08;;;;;;;;;;10133404;28;20145;-64
2022/12/28 19:14:15;;;;;;;52.72;49.40;;;;;;;;;;10125470;28;20050;-64
2022/12/28 19:19:11;;;;;;;51.45;48.00;;;;;;;;;;10129512;28;20576;-64
2022/12/28 19:24:12;;;;;;;52.22;48.83;;;;;;;;;;10124122;28;20061;-65
2022/12/28 19:29:12;;;;;;;47.72;44.53;;;;;;;;;;10114579;28;20078;-64
2022/12/28 19:34:08;;;;;;;45.00;42.17;;;;;;;;;;10123156;28;20054;-64
2022/12/28 19:39:05;;;;;;;42.20;39.70;;;;;;;;;;10154275;28;20046;-64
2022/12/28 19:44:01;;;;;;;42.22;39.55;;;;;;;;;;10134272;28;20053;-64
2022/12/28 19:48:57;;;;;;;39.92;37.42;;;;;;;;;;10153855;28;20054;-64
2022/12/28 19:53:54;;;;;;;41.88;39.20;;;;;;;;;;10126786;28;20057;-64
2022/12/28 19:58:50;;;;;;;42.50;39.63;;;;;;;;;;10153550;28;20072;-64
2022/12/28 20:03:46;;;;;;;40.38;37.88;;;;;;;;;;10119612;28;20138;-64
2022/12/28 20:08:47;;;;;;;41.15;38.35;;;;;;;;;;10144874;28;20043;-64
2022/12/28 20:13:43;;;;;;;42.75;40.08;;;;;;;;;;10119584;28;20046;-64
2022/12/28 20:18:43;;;;;;;42.47;39.80;;;;;;;;;;10136599;28;20053;-64
2022/12/28 20:23:40;;;;;;;41.75;39.13;;;;;;;;;;10118456;28;20655;-64
2022/12/28 20:28:36;;;;;;;43.85;41.00;;;;;;;;;;10137130;28;20105;-64
2022/12/28 20:33:33;;;;;;;44.88;41.58;;;;;;;;;;10117359;28;20046;-64
2022/12/28 20:38:30;;;;;;;45.58;42.58;;;;;;;;;;10128066;28;20504;-64
2022/12/28 20:43:26;;;;;;;45.47;42.33;;;;;;;;;;10116591;28;20085;-64
2022/12/28 20:48:23;;;;;;;44.78;41.83;;;;;;;;;;10116852;28;20070;-64
2022/12/28 20:53:19;;;;;;;46.60;43.47;;;;;;;;;;10114176;28;20398;-64
2022/12/28 20:58:15;;;;;;;47.13;43.80;;;;;;;;;;10121170;28;20527;-64
2022/12/28 21:03:12;;;;;;;47.20;44.00;;;;;;;;;;10120640;28;20086;-64
2022/12/28 21:08:08;;;;;;;47.38;43.88;;;;;;;;;;10159710;28;20493;-64
2022/12/28 21:13:04;;;;;;;47.55;44.30;;;;;;;;;;10149826;28;20054;-64
2022/12/28 21:18:01;;;;;;;50.03;46.50;;;;;;;;;;10159412;28;20141;-64
2022/12/28 21:22:57;;;;;;;49.10;45.67;;;;;;;;;;10142412;28;20053;-64
2022/12/28 21:27:54;;;;;;;50.88;47.25;;;;;;;;;;10158944;28;20121;-64
2022/12/28 21:32:50;;;;;;;50.72;47.25;;;;;;;;;;10129547;28;20046;-64
2022/12/28 21:37:46;;;;;;;55.33;51.35;;;;;;;;;;10157344;28;20129;-64
2022/12/28 21:42:42;;;;;;;55.38;51.38;;;;;;;;;;10127309;28;20070;-64
2022/12/28 21:47:38;;;;;;;56.05;52.38;;;;;;;;;;10155895;28;20428;-64
2022/12/28 21:52:35;;;;;;;58.10;54.17;;;;;;;;;;10122059;28;20069;-64
2022/12/28 21:57:31;;;;;;;58.92;54.70;;;;;;;;;;10150343;28;20526;-64
2022/12/28 22:07:43;;;;;;;57.38;53.28;;;;;;;;;;10140528;28;20078;-64
2022/12/28 22:12:39;;;;;;;58.10;54.10;;;;;;;;;;10118924;28;20074;-64
2022/12/28 22:17:35;;;;;;;58.55;54.58;;;;;;;;;;10138979;28;20134;-64
2022/12/28 22:22:32;;;;;;;59.85;55.60;;;;;;;;;;10117916;28;20493;-64
2022/12/28 22:27:28;;;;;;;58.45;54.05;;;;;;;;;;10119841;28;20129;-64
2022/12/28 22:32:24;;;;;;;58.10;54.10;;;;;;;;;;10117777;28;20545;-64
2022/12/28 22:37:20;;;;;;;57.80;53.85;;;;;;;;;;10116807;28;20465;-64
2022/12/28 22:42:17;;;;;;;55.97;51.97;;;;;;;;;;10115546;28;20074;-64
2022/12/28 22:47:13;;;;;;;54.67;50.80;;;;;;;;;;10150473;28;20050;-64
2022/12/28 22:52:09;;;;;;;56.95;52.85;;;;;;;;;;10147755;28;20125;-64
2022/12/28 22:57:06;;;;;;;53.53;49.72;;;;;;;;;;10148505;28;20077;-64
2022/12/28 23:02:02;;;;;;;54.53;50.63;;;;;;;;;;10129081;28;20454;-64
2022/12/28 23:06:58;;;;;;;53.95;50.05;;;;;;;;;;10147500;28;20054;-64
2022/12/28 23:11:59;;;;;;;55.33;51.13;;;;;;;;;;10124248;28;20085;-65
2022/12/28 23:16:56;;;;;;;57.70;53.22;;;;;;;;;;10136467;28;20135;-64
2022/12/28 23:27:20;;;;;;;55.30;51.30;;;;;;;;;;10123221;28;20082;-64
2022/12/28 23:32:16;;;;;;;55.78;51.80;;;;;;;;;;10115517;28;20050;-64
2022/12/28 23:37:12;;;;;;;53.80;49.90;;;;;;;;;;10148365;28;20148;-64
2022/12/28 23:42:09;;;;;;;56.50;52.40;;;;;;;;;;10134771;28;20426;-64
2022/12/28 23:47:05;;;;;;;55.35;51.30;;;;;;;;;;10147013;28;20061;-64
2022/12/28 23:52:01;;;;;;;55.20;51.20;;;;;;;;;;10130890;28;20053;-64
2022/12/28 23:56:57;;;;;;;57.42;53.15;;;;;;;;;;10144622;28;20046;-64
